Time;durP1;ratioP1;P1;durP2;ratioP2;P2;SDS_P1;SDS_P2;PMS_P1;PMS_P2;Temp;Humidity;BMP_temperature;BMP_pressure;BME280_temperature;BME280_humidity;BME280_pressure;Samples;Min_cycle;Max_cycle;Signal;HPM_P1;HPM_P2
2022/08/28 00:00:19;;;;;;;26.73;24.05;;;;;;;20.17;100.00;99181.00;5093137;28;20493;-82
2022/08/28 00:02:45;;;;;;;27.70;23.00;;;;;;;20.22;100.00;99187.66;5092815;28;20356;-82
2022/08/28 00:05:12;;;;;;;27.45;24.52;;;;;;;20.17;100.00;99185.44;5094251;28;20491;-81
2022/08/28 00:07:38;;;;;;;26.38;23.70;;;;;;;20.19;100.00;99197.56;5093861;28;20451;-82
2022/08/28 00:10:05;;;;;;;27.08;24.15;;;;;;;20.14;100.00;99186.59;5094201;28;20028;-82
2022/08/28 00:12:31;;;;;;;34.53;26.67;;;;;;;20.15;100.00;99196.19;5093821;28;20055;-82
2022/08/28 00:14:56;;;;;;;30.70;26.02;;;;;;;20.14;100.00;99197.16;5094268;28;20059;-81
2022/08/28 00:17:22;;;;;;;30.67;27.45;;;;;;;20.08;100.00;99181.84;5094127;28;20073;-81
2022/08/28 00:19:47;;;;;;;31.30;27.98;;;;;;;20.09;100.00;99190.63;5094140;28;20048;-82
2022/08/28 00:22:12;;;;;;;29.83;26.42;;;;;;;19.97;100.00;99178.53;5093793;28;20024;-81
2022/08/28 00:24:38;;;;;;;29.40;26.10;;;;;;;19.99;100.00;99189.81;5092472;28;20032;-81
2022/08/28 00:29:47;;;;;;;31.38;28.23;;;;;;;19.97;100.00;99197.88;5093376;28;20644;-81
2022/08/28 00:32:13;;;;;;;30.10;27.10;;;;;;;19.95;100.00;99197.19;5093368;28;20063;-81
2022/08/28 00:34:38;;;;;;;30.55;26.73;;;;;;;19.92;100.00;99200.13;5093613;28;20059;-82
2022/08/28 00:37:04;;;;;;;29.08;26.23;;;;;;;19.82;100.00;99184.28;5093829;28;20020;-82
2022/08/28 00:39:31;;;;;;;30.23;27.23;;;;;;;19.75;100.00;99182.34;5093588;28;20028;-81
2022/08/28 00:41:56;;;;;;;30.25;27.05;;;;;;;19.80;100.00;99193.31;5093943;28;20057;-81
2022/08/28 00:44:25;;;;;;;28.73;25.63;;;;;;;19.76;100.00;99195.41;5092521;28;20028;-82
2022/08/28 00:46:53;;;;;;;29.25;25.88;;;;;;;19.75;100.00;99193.75;5093116;28;20028;-82
2022/08/28 00:49:23;;;;;;;32.88;29.30;;;;;;;19.74;100.00;99189.44;5093412;28;20024;-81
2022/08/28 00:52:04;;;;;;;29.70;26.70;;;;;;;19.68;100.00;99182.09;5093101;28;20035;-81
2022/08/28 00:54:33;;;;;;;28.63;25.38;;;;;;;19.70;100.00;99182.78;5093516;28;20031;-81
2022/08/28 00:57:02;;;;;;;30.63;27.42;;;;;;;19.67;100.00;99177.75;5093359;28;20158;-81
2022/08/28 00:59:28;;;;;;;31.40;27.92;;;;;;;19.61;100.00;99173.88;5091279;28;20075;-82
2022/08/28 01:01:56;;;;;;;33.22;29.63;;;;;;;19.66;100.00;99179.56;5092875;28;20143;-81
2022/08/28 01:04:24;;;;;;;32.33;28.92;;;;;;;19.64;100.00;99186.00;5092958;28;20085;-81
2022/08/28 01:06:53;;;;;;;33.58;29.92;;;;;;;19.62;100.00;99190.56;5093014;28;20032;-81
2022/08/28 01:09:20;;;;;;;34.67;31.02;;;;;;;19.57;100.00;99175.09;5093073;28;20107;-81
2022/08/28 01:11:47;;;;;;;33.70;29.98;;;;;;;19.64;100.00;99191.28;5092702;28;20329;-81
2022/08/28 01:14:17;;;;;;;31.98;28.23;;;;;;;19.61;100.00;99179.16;5091636;28;20024;-81
2022/08/28 01:16:43;;;;;;;32.35;28.17;;;;;;;19.57;100.00;99183.03;5092555;28;20024;-81
2022/08/28 01:19:17;;;;;;;32.00;28.67;;;;;;;19.57;100.00;99180.38;5092599;28;20031;-80
2022/08/28 01:22:06;;;;;;;32.70;28.75;;;;;;;19.57;100.00;99193.59;5092479;28;20028;-81
2022/08/28 01:24:34;;;;;;;33.03;29.50;;;;;;;19.51;100.00;99182.75;5091481;28;20469;-81
2022/08/28 01:27:00;;;;;;;38.38;31.83;;;;;;;19.48;100.00;99185.69;5091320;28;20374;-81
2022/08/28 01:29:27;;;;;;;36.35;30.13;;;;;;;19.44;100.00;99178.03;5092558;28;20024;-81
2022/08/28 01:31:53;;;;;;;34.03;30.02;;;;;;;19.46;100.00;99196.38;5092391;28;20118;-81
2022/08/28 01:34:18;;;;;;;33.95;29.48;;;;;;;19.45;100.00;99192.06;5091230;28;20473;-81
2022/08/28 01:36:44;;;;;;;34.15;30.65;;;;;;;19.45;100.00;99200.00;5092579;28;20538;-81
2022/08/28 01:39:14;;;;;;;32.90;29.38;;;;;;;19.43;100.00;99192.22;5092435;28;20519;-81
2022/08/28 01:41:41;;;;;;;30.98;27.85;;;;;;;19.48;100.00;99191.81;5090735;28;20036;-85
2022/08/28 01:44:07;;;;;;;36.33;31.25;;;;;;;19.49;100.00;99187.34;5090941;28;20169;-81
2022/08/28 01:46:33;;;;;;;36.03;30.30;;;;;;;19.55;100.00;99192.91;5091138;28;20495;-81
2022/08/28 01:48:59;;;;;;;33.20;29.10;;;;;;;19.62;100.00;99183.47;5092149;28;20066;-81
2022/08/28 01:51:24;;;;;;;33.92;30.25;;;;;;;19.66;100.00;99186.66;5090889;28;20020;-81
2022/08/28 01:53:49;;;;;;;36.92;31.83;;;;;;;19.73;100.00;99192.25;5091885;28;20060;-80
2022/08/28 01:56:16;;;;;;;38.22;32.42;;;;;;;19.78;100.00;99190.81;5092297;28;20032;-80
2022/08/28 01:58:42;;;;;;;35.88;30.48;;;;;;;19.78;100.00;99176.78;5091923;28;20035;-80
2022/08/28 02:01:09;;;;;;;38.38;32.65;;;;;;;19.86;100.00;99177.75;5092630;28;20028;-80
2022/08/28 02:03:35;;;;;;;34.90;31.10;;;;;;;19.91;100.00;99186.06;5092248;28;20031;-80
2022/08/28 02:06:00;;;;;;;33.63;30.17;;;;;;;19.91;100.00;99182.59;5091999;28;20492;-80
2022/08/28 02:08:25;;;;;;;32.95;29.48;;;;;;;19.92;100.00;99184.25;5090939;28;20380;-80
2022/08/28 02:10:51;;;;;;;37.20;30.35;;;;;;;19.92;100.00;99171.03;5092014;28;20131;-81
2022/08/28 02:13:17;;;;;;;34.92;30.25;;;;;;;19.94;100.00;99179.69;5092117;28;20451;-80
2022/08/28 02:15:42;;;;;;;39.30;31.38;;;;;;;19.92;100.00;99168.41;5092095;28;20032;-80
2022/08/28 02:18:09;;;;;;;33.78;30.05;;;;;;;19.94;100.00;99177.03;5049808;28;20033;-80
2022/08/28 02:20:35;;;;;;;35.38;31.60;;;;;;;20.04;100.00;99191.06;5049788;28;20229;-81
2022/08/28 02:23:00;;;;;;;36.05;31.52;;;;;;;20.01;100.00;99178.13;5049429;28;20068;-81
2022/08/28 02:25:28;;;;;;;35.03;31.23;;;;;;;20.06;100.00;99181.19;5050447;28;20580;-81
2022/08/28 02:27:54;;;;;;;36.83;32.88;;;;;;;20.03;100.00;99173.53;5033239;28;20374;-81
2022/08/28 02:30:20;;;;;;;36.28;31.77;;;;;;;20.09;100.00;99183.53;5050936;28;20064;-81
2022/08/28 02:32:45;;;;;;;34.95;31.20;;;;;;;20.06;100.00;99170.59;5050241;28;20602;-81
2022/08/28 02:35:14;;;;;;;40.03;31.65;;;;;;;20.11;100.00;99178.94;5034271;28;20032;-81
2022/08/28 02:37:41;;;;;;;37.75;31.83;;;;;;;20.12;100.00;99170.03;5033195;28;20140;-81
2022/08/28 02:40:08;;;;;;;39.30;32.78;;;;;;;20.08;100.00;99165.16;5049545;28;20079;-80
2022/08/28 02:42:33;;;;;;;39.75;33.65;;;;;;;20.17;100.00;99185.44;5033323;28;20029;-81
2022/08/28 02:44:59;;;;;;;36.92;31.25;;;;;;;20.09;100.00;99166.81;5051672;28;20039;-81
2022/08/28 02:47:25;;;;;;;40.25;29.88;;;;;;;20.11;100.00;99173.66;5051224;28;20064;-81
2022/08/28 02:49:51;;;;;;;36.40;30.77;;;;;;;20.19;100.00;99186.97;5091680;28;20048;-81
2022/08/28 02:52:17;;;;;;;38.47;33.35;;;;;;;20.13;100.00;99173.50;5101268;28;20028;-81
2022/08/28 02:54:45;;;;;;;37.95;31.85;;;;;;;20.19;100.00;99186.97;5100579;28;20404;-81
2022/08/28 02:57:10;;;;;;;36.92;31.42;;;;;;;20.19;100.00;99192.28;5096839;28;20465;-81
2022/08/28 02:59:37;;;;;;;38.63;31.40;;;;;;;20.21;100.00;99197.41;5092085;28;20035;-81
2022/08/28 03:02:05;;;;;;;35.85;32.10;;;;;;;20.22;100.00;99192.94;5090176;28;20032;-81
2022/08/28 03:04:31;;;;;;;36.45;30.40;;;;;;;20.20;100.00;99190.47;5091593;28;20027;-81
2022/08/28 03:06:58;;;;;;;34.13;30.10;;;;;;;20.24;100.00;99188.38;5091174;28;20021;-81
2022/08/28 03:09:23;;;;;;;39.08;31.23;;;;;;;20.22;100.00;99183.19;5091427;28;20110;-81
2022/08/28 03:11:52;;;;;;;38.50;30.77;;;;;;;20.25;100.00;99182.91;5089702;28;20079;-81
2022/08/28 03:14:19;;;;;;;35.85;30.55;;;;;;;20.24;100.00;99175.97;5091422;28;20017;-81
2022/08/28 03:16:44;;;;;;;35.55;29.80;;;;;;;20.26;100.00;99181.94;5091451;28;20059;-81
2022/08/28 03:19:10;;;;;;;37.28;30.30;;;;;;;20.24;100.00;99183.91;5091551;28;20140;-82
2022/08/28 03:21:35;;;;;;;33.85;28.98;;;;;;;20.23;100.00;99178.78;5091550;28;20092;-82
2022/08/28 03:24:01;;;;;;;35.60;31.30;;;;;;;20.19;100.00;99170.28;5093489;28;20433;-81
2022/08/28 03:26:26;;;;;;;37.05;30.42;;;;;;;20.13;100.00;99165.56;5093559;28;20024;-81
2022/08/28 03:28:53;;;;;;;34.05;28.73;;;;;;;20.26;100.00;99184.56;5094837;28;20027;-81
2022/08/28 03:31:21;;;;;;;35.17;30.15;;;;;;;20.22;100.00;99179.72;5094921;28;20028;-81
2022/08/28 03:33:49;;;;;;;38.05;31.50;;;;;;;20.21;100.00;99167.50;5094351;28;20396;-81
2022/08/28 03:36:18;;;;;;;33.63;29.88;;;;;;;20.19;100.00;99173.75;5094754;28;20473;-81
2022/08/28 03:38:43;;;;;;;35.22;30.83;;;;;;;20.25;100.00;99176.81;5094425;28;20020;-81
2022/08/28 03:41:13;;;;;;;36.42;30.48;;;;;;;20.18;100.00;99164.19;5093419;28;20024;-81
2022/08/28 03:43:39;;;;;;;;;;;;;;;20.24;100.00;99183.91;5094939;28;20488;-81
2022/08/28 03:46:06;;;;;;;31.70;27.52;;;;;;;20.19;100.00;99172.94;5094608;28;19912;-82
2022/08/28 03:48:35;;;;;;;32.35;27.42;;;;;;;20.20;100.00;99169.31;5093180;28;20030;-81
2022/08/28 03:51:05;;;;;;;32.78;27.70;;;;;;;20.18;100.00;99168.59;5094301;28;20028;-81
2022/08/28 03:53:31;;;;;;;33.75;27.67;;;;;;;20.23;100.00;99181.41;5093073;28;20439;-82
2022/08/28 03:55:58;;;;;;;35.33;30.05;;;;;;;20.21;100.00;99184.19;5092977;28;20032;-81
2022/08/28 03:58:25;;;;;;;36.92;28.98;;;;;;;20.15;100.00;99182.13;5094443;28;20032;-81
2022/08/28 04:00:50;;;;;;;36.45;30.30;;;;;;;20.14;100.00;99176.00;5092769;28;20477;-79
2022/08/28 04:03:16;;;;;;;33.38;28.30;;;;;;;20.14;100.00;99177.78;5094555;28;20024;-81
2022/08/28 04:05:44;;;;;;;34.67;27.98;;;;;;;20.09;100.00;99178.22;5093996;28;20443;-81
2022/08/28 04:08:14;;;;;;;34.28;29.35;;;;;;;20.21;100.00;99202.69;5094463;28;20028;-81
2022/08/28 04:10:41;;;;;;;36.88;30.88;;;;;;;20.16;100.00;99194.38;5094234;28;20020;-81
2022/08/28 04:13:07;;;;;;;35.97;29.88;;;;;;;20.16;100.00;99189.06;5092697;28;20085;-81
2022/08/28 04:15:32;;;;;;;34.67;29.10;;;;;;;20.19;100.00;99199.38;5093945;28;20418;-81
2022/08/28 04:17:57;;;;;;;36.00;29.35;;;;;;;20.20;100.00;99203.69;5093900;28;20027;-81
2022/08/28 04:20:23;;;;;;;36.67;30.50;;;;;;;20.22;100.00;99214.94;5092544;28;20058;-81
2022/08/28 04:22:48;;;;;;;33.83;29.15;;;;;;;20.18;100.00;99203.84;5093474;28;20368;-81
2022/08/28 04:25:14;;;;;;;32.28;27.83;;;;;;;20.23;100.00;99219.28;5092540;28;20131;-80
2022/08/28 04:27:40;;;;;;;34.53;28.60;;;;;;;20.19;100.00;99218.72;5093683;28;20085;-81
2022/08/28 04:30:06;;;;;;;33.83;28.50;;;;;;;20.18;100.00;99213.56;5092246;28;20051;-81
2022/08/28 04:32:36;;;;;;;35.10;27.40;;;;;;;20.07;100.00;99193.41;5093628;28;20047;-81
2022/08/28 04:35:03;;;;;;;28.67;25.60;;;;;;;20.22;100.00;99222.88;5092477;28;20027;-81
2022/08/28 04:37:29;;;;;;;31.98;27.33;;;;;;;20.23;100.00;99227.19;5093515;28;20040;-81
2022/08/28 04:39:55;;;;;;;31.73;27.48;;;;;;;20.28;100.00;99232.06;5091994;28;20035;-81
2022/08/28 04:42:20;;;;;;;32.30;26.00;;;;;;;20.27;100.00;99227.72;5093639;28;20032;-81
2022/08/28 04:44:45;;;;;;;31.27;27.58;;;;;;;20.26;100.00;99223.41;5093526;28;20028;-81
2022/08/28 04:47:11;;;;;;;31.02;27.27;;;;;;;20.22;100.00;99214.94;5091910;28;20071;-81
2022/08/28 04:49:36;;;;;;;31.55;26.88;;;;;;;20.25;100.00;99222.59;5093305;28;20028;-81
2022/08/28 04:52:02;;;;;;;29.17;24.42;;;;;;;20.28;100.00;99232.88;5093261;28;20093;-81
2022/08/28 04:54:28;;;;;;;33.28;28.00;;;;;;;20.29;100.00;99234.53;5093562;28;20034;-81
2022/08/28 04:56:54;;;;;;;34.00;26.63;;;;;;;20.28;100.00;99229.41;5091761;28;20024;-81
2022/08/28 04:59:19;;;;;;;32.38;26.33;;;;;;;20.34;100.00;99231.47;5093216;28;20165;-81
2022/08/28 05:01:45;;;;;;;40.40;29.50;;;;;;;20.31;100.00;99227.31;5091993;28;20385;-81
2022/08/28 05:04:11;;;;;;;33.45;28.08;;;;;;;20.30;100.00;99227.44;5092776;28;20177;-81
2022/08/28 05:06:44;;;;;;;32.03;27.17;;;;;;;20.28;100.00;99227.59;5091927;28;20032;-81
2022/08/28 05:09:12;;;;;;;35.30;28.70;;;;;;;20.33;100.00;99230.63;5091411;28;20031;-81
2022/08/28 05:11:38;;;;;;;34.67;28.67;;;;;;;20.33;100.00;99232.44;5092905;28;20028;-81
2022/08/28 05:14:08;;;;;;;37.65;27.23;;;;;;;20.32;100.00;99228.16;5092633;28;20471;-81
2022/08/28 05:16:46;;;;;;;36.72;28.73;;;;;;;20.32;100.00;99228.16;5092818;28;20036;-81
2022/08/28 05:19:12;;;;;;;37.25;28.40;;;;;;;20.36;100.00;99226.88;5092756;28;20112;-81
2022/08/28 05:21:38;;;;;;;34.17;28.05;;;;;;;20.30;100.00;99222.16;5092708;28;20082;-81
2022/08/28 05:24:04;;;;;;;33.30;26.05;;;;;;;20.34;100.00;99234.13;5092824;28;20028;-81
2022/08/28 05:26:29;;;;;;;30.33;24.10;;;;;;;20.37;100.00;99236.47;5092654;28;20028;-82
2022/08/28 05:28:56;;;;;;;31.77;26.63;;;;;;;20.36;100.00;99230.38;5092779;28;20548;-81
2022/08/28 05:31:22;;;;;;;36.95;28.77;;;;;;;20.39;100.00;99230.06;5091480;28;20085;-81
2022/08/28 05:33:50;;;;;;;35.28;27.65;;;;;;;20.38;100.00;99231.03;5092675;28;20043;-81
2022/08/28 05:36:16;;;;;;;40.95;30.75;;;;;;;20.47;100.00;99244.38;5091475;28;20415;-81
2022/08/28 05:38:43;;;;;;;34.33;28.20;;;;;;;20.48;100.00;99233.69;5092549;28;20504;-81
2022/08/28 05:41:08;;;;;;;36.63;28.70;;;;;;;20.43;100.00;99225.31;5091083;28;20020;-81
2022/08/28 05:43:34;;;;;;;39.80;29.52;;;;;;;20.53;100.00;99244.69;5091163;28;20365;-81
2022/08/28 05:46:03;;;;;;;40.55;29.05;;;;;;;20.53;100.00;99239.38;5091800;28;20031;-81
2022/08/28 05:48:30;;;;;;;39.70;31.38;;;;;;;20.57;100.00;99242.56;5092409;28;20077;-81
2022/08/28 05:51:11;;;;;;;38.22;29.27;;;;;;;20.59;100.00;99241.44;5092080;28;20046;-81
2022/08/28 05:53:39;;;;;;;33.97;26.38;;;;;;;20.55;100.00;99233.94;5107988;28;20028;-81
2022/08/28 05:56:16;;;;;;;35.88;27.77;;;;;;;20.63;100.00;99244.63;5091918;28;20028;-81
2022/08/28 05:58:41;;;;;;;36.65;26.95;;;;;;;20.57;100.00;99224.88;5092450;28;20038;-81
2022/08/28 06:01:14;;;;;;;43.20;29.80;;;;;;;20.61;100.00;99231.56;5092407;28;20039;-81
2022/08/28 06:03:41;;;;;;;34.63;27.00;;;;;;;20.64;100.00;99238.34;5092266;28;20031;-81
2022/08/28 06:06:07;;;;;;;38.30;29.38;;;;;;;20.69;100.00;99249.34;5091921;28;20024;-81
2022/08/28 06:08:34;;;;;;;39.45;28.25;;;;;;;20.69;100.00;99244.06;5092859;28;20028;-81
2022/08/28 06:11:04;;;;;;;37.90;27.23;;;;;;;20.71;100.00;99246.56;5092597;28;20035;-81
2022/08/28 06:13:31;;;;;;;34.90;27.27;;;;;;;20.70;100.00;99242.25;5092512;28;20051;-81
2022/08/28 06:15:57;;;;;;;32.67;25.73;;;;;;;20.71;100.00;99242.09;5090524;28;20030;-81
2022/08/28 06:18:23;;;;;;;39.90;28.02;;;;;;;20.69;100.00;99236.13;5092068;28;20099;-81
2022/08/28 06:20:48;;;;;;;32.92;24.52;;;;;;;20.76;100.00;99247.78;5091965;28;20027;-81
2022/08/28 06:23:17;;;;;;;35.15;25.45;;;;;;;20.74;100.00;99240.97;5090182;28;20470;-81
2022/08/28 06:25:47;;;;;;;37.40;26.75;;;;;;;20.77;100.00;99244.13;5072211;28;20040;-81
2022/08/28 06:28:16;;;;;;;38.35;27.83;;;;;;;20.76;100.00;99250.41;5089247;28;20556;-81
2022/08/28 06:30:45;;;;;;;30.92;25.38;;;;;;;20.78;100.00;99247.66;5089245;28;20169;-82
2022/08/28 06:33:11;;;;;;;34.75;25.77;;;;;;;20.83;100.00;99248.88;5088859;28;20080;-81
2022/08/28 06:35:45;;;;;;;32.90;26.17;;;;;;;20.75;100.00;99232.88;5089182;28;20086;-81
2022/08/28 06:38:11;;;;;;;31.95;25.65;;;;;;;20.88;100.00;99262.47;5072055;28;20480;-81
2022/08/28 06:40:41;;;;;;;35.17;26.30;;;;;;;20.81;100.00;99250.81;5072112;28;20032;-82
2022/08/28 06:43:08;;;;;;;32.70;23.10;;;;;;;20.66;100.00;99226.66;5088887;28;20028;-82
2022/08/28 06:45:34;;;;;;;33.80;25.25;;;;;;;20.89;100.00;99264.16;5072169;28;20396;-81
2022/08/28 06:48:00;;;;;;;31.27;22.35;;;;;;;20.88;100.00;99265.13;5071860;28;20469;-81
2022/08/28 06:50:25;;;;;;;27.67;23.17;;;;;;;20.90;100.00;99263.19;5088879;28;20035;-82
2022/08/28 06:52:50;;;;;;;27.55;22.15;;;;;;;20.95;100.00;99269.84;5089318;28;20032;-82
2022/08/28 06:55:16;;;;;;;32.72;22.42;;;;;;;20.96;100.00;99256.47;5071860;28;20067;-81
2022/08/28 06:57:41;;;;;;;27.05;22.63;;;;;;;21.00;100.00;99270.25;5093436;28;20085;-81
2022/08/28 07:00:07;;;;;;;28.85;21.95;;;;;;;20.98;100.00;99258.94;5095939;28;20097;-81
2022/08/28 07:02:33;;;;;;;26.08;21.85;;;;;;;21.08;100.00;99275.63;5095698;28;20028;-81
2022/08/28 07:04:59;;;;;;;28.60;23.40;;;;;;;21.14;100.00;99270.56;5093810;28;20057;-81
2022/08/28 07:07:24;;;;;;;26.40;22.45;;;;;;;21.23;100.00;99268.00;5095633;28;20024;-81
2022/08/28 07:09:50;;;;;;;25.98;21.13;;;;;;;21.32;100.00;99265.34;5096239;28;20061;-81
2022/08/28 07:12:17;;;;;;;24.48;21.60;;;;;;;21.37;100.00;99264.91;5097629;28;20047;-81
2022/08/28 07:14:43;;;;;;;23.40;20.30;;;;;;;21.49;100.00;99271.66;5096048;28;20024;-81
2022/08/28 07:17:09;;;;;;;24.00;21.30;;;;;;;21.58;100.00;99272.56;5095421;28;20035;-82
2022/08/28 07:19:35;;;;;;;22.58;18.73;;;;;;;21.61;100.00;99274.88;5094387;28;20032;-85
2022/08/28 07:22:00;;;;;;;22.20;18.98;;;;;;;21.60;100.00;99266.13;5094002;28;20038;-82
2022/08/28 07:24:25;;;;;;;21.35;18.95;;;;;;;21.65;100.00;99268.31;5096669;28;20114;-82
2022/08/28 07:26:51;;;;;;;20.40;18.20;;;;;;;21.87;100.00;99280.28;5094512;28;20024;-80
2022/08/28 07:29:18;;;;;;;20.85;18.75;;;;;;;21.96;100.00;99283.84;5095399;28;20046;-78
2022/08/28 07:31:47;;;;;;;23.08;19.33;;;;;;;22.05;100.00;99280.25;5093583;28;20016;-79
2022/08/28 07:34:14;;;;;;;22.83;19.08;;;;;;;22.02;100.00;99278.75;5096179;28;20115;-78
2022/08/28 07:36:40;;;;;;;20.50;18.45;;;;;;;22.07;100.00;99271.16;5095759;28;20073;-79
2022/08/28 07:39:07;;;;;;;21.77;19.48;;;;;;;22.19;100.00;99271.78;5095401;28;20047;-79
2022/08/28 07:41:36;;;;;;;21.25;18.98;;;;;;;22.21;100.00;99263.69;5095119;28;20035;-79
2022/08/28 07:46:46;;;;;;;21.70;19.58;;;;;;;22.37;100.00;99275.19;5095590;28;20539;-78
2022/08/28 07:49:15;;;;;;;22.10;19.58;;;;;;;22.56;100.00;99278.66;5094897;28;20051;-78
2022/08/28 07:51:41;;;;;;;19.27;17.27;;;;;;;22.69;100.00;99264.94;5095975;28;20099;-78
2022/08/28 07:54:06;;;;;;;21.42;19.13;;;;;;;22.75;100.00;99280.22;5095266;28;20107;-78
2022/08/28 07:56:32;;;;;;;20.20;18.13;;;;;;;22.77;100.00;99292.38;5095614;28;20031;-79
2022/08/28 07:58:59;;;;;;;21.95;18.13;;;;;;;22.79;100.00;99284.22;5094069;28;20020;-78
2022/08/28 08:01:27;;;;;;;20.90;17.90;;;;;;;22.71;100.00;99289.50;5095512;28;20028;-79
2022/08/28 08:03:53;;;;;;;19.90;17.60;;;;;;;22.81;100.00;99295.53;5095421;28;20399;-79
2022/08/28 08:06:20;;;;;;;20.10;18.08;;;;;;;22.96;100.00;99293.97;5094829;28;20021;-79
2022/08/28 08:08:46;;;;;;;21.25;16.92;;;;;;;23.03;100.00;99289.69;5093203;28;20028;-79
2022/08/28 08:11:17;;;;;;;18.95;16.95;;;;;;;23.12;100.00;99298.53;5092997;28;20054;-79
2022/08/28 08:13:44;;;;;;;18.90;15.70;;;;;;;23.07;100.00;99298.19;5095724;28;20457;-79
2022/08/28 08:16:22;;;;;;;18.92;17.05;;;;;;;22.93;100.00;99289.00;5093367;28;20032;-78
2022/08/28 08:18:49;;;;;;;18.33;16.13;;;;;;;23.00;100.00;99319.22;5095417;28;20039;-78
2022/08/28 08:21:17;;;;;;;21.02;17.45;;;;;;;22.99;100.00;99306.09;5095037;28;20032;-79
2022/08/28 08:23:43;;;;;;;18.33;16.50;;;;;;;23.03;100.00;99318.09;5094778;28;20085;-78
2022/08/28 08:26:12;;;;;;;19.75;17.75;;;;;;;23.04;100.00;99315.25;5094633;28;20434;-78
2022/08/28 08:28:39;;;;;;;19.38;17.27;;;;;;;23.05;100.00;99308.97;5094936;28;20035;-78
2022/08/28 08:31:14;;;;;;;19.17;17.23;;;;;;;23.12;100.00;99322.44;5095311;28;20119;-78
2022/08/28 08:33:42;;;;;;;19.00;17.00;;;;;;;23.09;100.00;99314.78;5094525;28;20077;-78
2022/08/28 08:36:10;;;;;;;21.02;18.33;;;;;;;23.20;100.00;99317.16;5092691;28;20047;-79
2022/08/28 08:38:36;;;;;;;20.67;17.13;;;;;;;23.40;100.00;99310.56;5092847;28;20028;-78
2022/08/28 08:41:12;;;;;;;18.60;16.70;;;;;;;23.85;100.00;99306.72;5093548;28;20090;-78
2022/08/28 08:44:07;;;;;;;19.55;17.45;;;;;;;24.50;98.08;99315.69;5093710;28;20024;-78
2022/08/28 08:46:45;;;;;;;20.27;16.58;;;;;;;24.80;94.72;99314.97;5093337;28;20060;-78
2022/08/28 08:49:34;;;;;;;18.02;15.90;;;;;;;24.97;94.39;99304.25;5093168;28;20035;-78
2022/08/28 08:52:15;;;;;;;15.73;14.23;;;;;;;25.33;92.82;99317.97;5093744;28;20032;-78
2022/08/28 08:54:41;;;;;;;;;;;;;;;25.62;91.44;99311.97;5093637;28;20383;-78
2022/08/28 08:57:11;;;;;;;14.95;13.50;;;;;;;25.62;89.91;99317.31;5092975;28;20288;-79
2022/08/28 08:59:38;;;;;;;14.00;12.60;;;;;;;25.56;89.76;99318.81;5093194;28;20107;-78
2022/08/28 09:02:13;;;;;;;13.63;12.32;;;;;;;25.45;89.79;99321.03;5094636;28;20032;-78
2022/08/28 09:05:15;;;;;;;14.75;12.50;;;;;;;25.21;90.42;99324.69;5095964;28;20032;-78
2022/08/28 09:07:52;;;;;;;14.18;12.73;;;;;;;24.94;91.66;99328.56;5096024;28;20036;-77
2022/08/28 09:10:18;;;;;;;15.57;13.02;;;;;;;24.87;92.34;99328.44;5095682;28;20054;-77
2022/08/28 09:12:59;;;;;;;14.77;13.15;;;;;;;24.86;92.61;99329.41;5101263;28;20032;-77
2022/08/28 09:15:30;;;;;;;14.43;12.00;;;;;;;24.84;92.33;99315.44;5100982;28;20028;-78
2022/08/28 09:18:19;;;;;;;13.30;12.00;;;;;;;25.06;92.16;99320.03;5099291;28;20108;-78
2022/08/28 09:20:49;;;;;;;13.15;11.90;;;;;;;25.23;90.22;99312.81;5095851;28;20469;-77
2022/08/28 09:23:15;;;;;;;12.63;11.43;;;;;;;25.38;89.19;99321.75;5092676;28;20028;-78
2022/08/28 09:25:43;;;;;;;12.30;11.02;;;;;;;25.45;89.92;99323.72;5093324;28;20073;-78
2022/08/28 09:28:13;;;;;;;11.10;10.10;;;;;;;25.35;89.42;99329.25;5093448;28;20028;-78
2022/08/28 09:30:40;;;;;;;11.20;9.95;;;;;;;25.20;89.82;99321.19;5093648;28;20028;-78
2022/08/28 09:33:06;;;;;;;11.75;10.57;;;;;;;25.11;89.96;99320.41;5093153;28;20545;-77
2022/08/28 09:35:34;;;;;;;11.95;9.73;;;;;;;25.02;90.67;99321.38;5093157;28;20023;-78
2022/08/28 09:38:25;;;;;;;10.70;9.70;;;;;;;24.98;91.35;99325.38;5093372;28;20035;-78
2022/08/28 09:43:51;;;;;;;14.13;11.23;;;;;;;24.86;91.49;99322.28;5030632;28;20501;-78
2022/08/28 09:46:23;;;;;;;13.32;12.02;;;;;;;24.91;91.29;99324.44;5030610;28;20046;-78
2022/08/28 09:48:51;;;;;;;12.50;11.30;;;;;;;24.84;91.51;99323.44;5031046;28;20371;-78
2022/08/28 09:51:19;;;;;;;13.23;11.93;;;;;;;24.87;90.32;99329.25;5030078;28;20048;-78
2022/08/28 09:53:50;;;;;;;15.63;12.15;;;;;;;24.84;90.95;99336.75;5029814;28;20149;-78
2022/08/28 09:56:27;;;;;;;12.48;11.27;;;;;;;24.79;91.11;99323.94;5029644;28;20156;-77
2022/08/28 09:58:58;;;;;;;13.55;12.25;;;;;;;24.68;91.52;99321.63;5030335;28;20482;-78
2022/08/28 10:01:46;;;;;;;11.68;10.57;;;;;;;24.67;91.57;99327.97;5030125;28;20033;-78
2022/08/28 10:04:32;;;;;;;11.07;10.07;;;;;;;24.66;92.22;99334.31;5029891;28;20418;-78
2022/08/28 10:07:01;;;;;;;12.20;10.25;;;;;;;24.70;92.47;99332.97;5030492;28;20048;-77
2022/08/28 10:09:38;;;;;;;9.43;8.27;;;;;;;24.60;92.92;99332.31;5030020;28;20394;-77
2022/08/28 10:12:32;;;;;;;9.80;8.88;;;;;;;24.51;94.06;99328.00;5030826;28;20037;-78
2022/08/28 10:15:19;;;;;;;11.98;9.38;;;;;;;24.47;94.53;99337.31;5029805;28;20025;-78
2022/08/28 10:18:12;;;;;;;10.35;9.45;;;;;;;24.33;94.13;99321.00;5064185;28;20044;-79
2022/08/28 10:21:19;;;;;;;10.52;9.52;;;;;;;24.49;94.24;99338.84;5093879;28;20035;-78
2022/08/28 10:24:21;;;;;;;12.18;10.32;;;;;;;24.70;93.39;99332.16;5049728;28;20142;-78
2022/08/28 10:26:49;;;;;;;10.82;9.23;;;;;;;24.95;92.21;99323.09;5050020;28;20025;-78
2022/08/28 10:29:30;;;;;;;10.02;9.02;;;;;;;25.26;90.55;99333.81;5050057;28;20437;-78
2022/08/28 10:32:16;;;;;;;10.32;8.25;;;;;;;25.51;89.36;99331.84;5050490;28;20103;-78
2022/08/28 10:34:50;;;;;;;9.60;8.70;;;;;;;25.58;88.93;99330.16;5054370;28;20414;-78
2022/08/28 10:37:41;;;;;;;9.75;8.85;;;;;;;25.54;88.64;99346.69;5054376;28;20119;-79
2022/08/28 10:40:17;;;;;;;12.35;11.15;;;;;;;25.32;89.30;99342.94;5057446;28;20516;-78
2022/08/28 10:42:49;;;;;;;20.45;16.52;;;;;;;24.97;90.57;99329.06;5054160;28;20044;-78
2022/08/28 10:45:21;;;;;;;23.65;21.13;;;;;;;24.72;92.00;99336.28;5052953;28;20036;-77
2022/08/28 10:47:58;;;;;;;27.55;22.05;;;;;;;24.30;93.35;99331.97;5053176;28;20056;-78
2022/08/28 10:50:28;;;;;;;27.33;22.38;;;;;;;24.12;94.19;99340.13;5053027;28;20025;-78
2022/08/28 10:53:02;;;;;;;;;;;;;;;24.01;94.88;99350.28;5053903;28;20040;-79
2022/08/28 10:56:07;;;;;;;28.63;24.13;;;;;;;23.82;96.67;99354.09;5052741;28;19932;-78
2022/08/28 10:58:37;;;;;;;33.03;26.63;;;;;;;23.67;97.78;99345.06;4992828;28;20066;-78
2022/08/28 11:01:07;;;;;;;31.55;25.08;;;;;;;23.51;99.62;99335.19;5040356;28;20116;-78
2022/08/28 11:03:44;;;;;;;36.08;26.23;;;;;;;23.58;100.00;99341.53;5051499;28;20612;-77
2022/08/28 11:06:21;;;;;;;35.00;25.90;;;;;;;23.55;100.00;99353.31;5050325;28;20115;-79
2022/08/28 11:08:56;;;;;;;26.70;23.92;;;;;;;23.48;99.87;99333.69;5052587;28;20045;-78
2022/08/28 11:11:41;;;;;;;26.30;20.88;;;;;;;23.50;98.40;99346.81;5052202;28;20040;-78
2022/08/28 11:14:08;;;;;;;24.63;19.65;;;;;;;23.38;98.10;99336.47;5052105;28;20040;-77
2022/08/28 11:16:38;;;;;;;21.42;17.50;;;;;;;23.26;98.61;99339.59;5052321;28;20175;-76
2022/08/28 11:19:19;;;;;;;20.77;18.58;;;;;;;23.24;100.00;99350.38;5050640;28;20039;-77
2022/08/28 11:22:11;;;;;;;24.70;18.40;;;;;;;22.97;100.00;99348.78;5052645;28;20041;-78
2022/08/28 11:24:48;;;;;;;20.77;16.77;;;;;;;22.80;100.00;99349.66;4973088;28;20035;-77
2022/08/28 11:27:20;;;;;;;17.48;15.65;;;;;;;22.71;100.00;99354.03;4972939;28;20476;-78
2022/08/28 11:29:57;;;;;;;17.25;15.52;;;;;;;22.61;100.00;99355.97;4973237;28;20066;-77